Time;durP1;ratioP1;P1;durP2;ratioP2;P2;SDS_P1;SDS_P2;PMS_P1;PMS_P2;Temp;Humidity;BMP_temperature;BMP_pressure;BME280_temperature;BME280_humidity;BME280_pressure;Samples;Min_cycle;Max_cycle;Signal;HPM_P1;HPM_P2
2021/07/13 00:00:12;;;;;;;0.20;0.20;;;;;;;21.07;67.10;100025.38;4898706;29;20102;-80
2021/07/13 00:02:39;;;;;;;2.53;1.10;;;;;;;21.06;67.99;100024.53;4880111;29;20047;-80
2021/07/13 00:05:08;;;;;;;0.52;0.30;;;;;;;21.02;69.23;100027.88;4871615;29;20625;-79
2021/07/13 00:07:34;;;;;;;0.28;0.20;;;;;;;20.98;69.53;100026.63;4904953;29;20459;-80
2021/07/13 00:10:01;;;;;;;0.52;0.30;;;;;;;20.98;69.48;100034.84;4902831;29;20514;-80
2021/07/13 00:12:26;;;;;;;0.38;0.20;;;;;;;20.92;70.54;100029.16;4895252;29;20111;-80
2021/07/13 00:14:52;;;;;;;1.27;0.30;;;;;;;20.88;71.33;100027.88;4895746;29;20686;-79
2021/07/13 00:17:18;;;;;;;0.63;0.30;;;;;;;20.87;71.73;100023.41;4891544;29;20622;-79
2021/07/13 00:19:44;;;;;;;0.20;0.17;;;;;;;20.85;71.78;100017.31;4895845;29;20116;-79
2021/07/13 00:22:10;;;;;;;0.20;0.20;;;;;;;20.85;71.91;100020.06;4905155;29;20047;-81
2021/07/13 00:24:37;;;;;;;0.20;0.20;;;;;;;20.80;72.49;100018.97;4906505;29;20393;-80
2021/07/13 00:27:03;;;;;;;0.30;0.30;;;;;;;20.77;72.93;100020.25;4901919;29;20116;-82
2021/07/13 00:29:29;;;;;;;0.40;0.40;;;;;;;20.73;72.77;100023.63;4907670;29;20460;-79
2021/07/13 00:32:01;;;;;;;0.20;0.20;;;;;;;20.66;73.45;100024.47;4904376;29;20072;-80
2021/07/13 00:34:27;;;;;;;0.20;0.20;;;;;;;20.62;73.31;100022.31;4891857;29;20045;-80
2021/07/13 00:36:53;;;;;;;0.20;0.20;;;;;;;20.59;73.58;100012.59;4900986;29;20052;-79
2021/07/13 00:39:19;;;;;;;0.43;0.28;;;;;;;20.58;74.10;100010.06;4891796;29;20071;-82
2021/07/13 00:41:45;;;;;;;0.22;0.22;;;;;;;20.54;73.75;100025.25;4920449;29;22268;-79
2021/07/13 00:44:11;;;;;;;0.85;0.20;;;;;;;20.47;74.86;100023.28;4918697;29;20037;-79
2021/07/13 00:46:47;;;;;;;0.30;0.20;;;;;;;20.39;75.30;100025.41;4897543;29;20052;-81
2021/07/13 00:49:15;;;;;;;0.22;0.20;;;;;;;20.29;75.72;100023.03;4903841;29;20498;-79
2021/07/13 00:51:41;;;;;;;0.30;0.20;;;;;;;20.25;75.67;100021.75;4907593;29;20041;-80
2021/07/13 00:54:11;;;;;;;0.32;0.30;;;;;;;20.24;76.04;100031.03;4886000;29;20439;-80
2021/07/13 00:56:42;;;;;;;0.28;0.20;;;;;;;20.25;76.16;100035.47;4858233;29;20144;-81
2021/07/13 00:59:08;;;;;;;0.10;0.10;;;;;;;20.25;75.86;100027.25;4864125;29;20570;-78
2021/07/13 01:01:35;;;;;;;0.20;0.20;;;;;;;20.30;75.86;100029.38;4895375;29;20084;-78
2021/07/13 01:04:05;;;;;;;2.78;0.80;;;;;;;20.30;75.54;100024.75;4910664;29;20052;-80
2021/07/13 01:06:54;;;;;;;1.80;0.68;;;;;;;20.26;75.61;100028.06;4917669;29;20047;-78
2021/07/13 01:09:54;;;;;;;0.30;0.30;;;;;;;20.26;75.89;100031.69;4885295;29;20083;-80
2021/07/13 01:12:41;;;;;;;0.35;0.28;;;;;;;20.26;75.90;100031.69;4895863;29;20135;-80
2021/07/13 01:15:08;;;;;;;0.15;0.15;;;;;;;20.32;72.81;100036.34;4903525;29;20072;-80
2021/07/13 01:17:47;;;;;;;0.40;0.15;;;;;;;20.46;71.19;100035.34;4903210;29;20040;-78
2021/07/13 01:20:33;;;;;;;0.55;0.38;;;;;;;20.59;69.78;100042.00;4892558;29;20052;-80
2021/07/13 01:23:17;;;;;;;0.35;0.20;;;;;;;20.74;68.38;100037.16;4888874;29;20041;-80
2021/07/13 01:25:58;;;;;;;0.20;0.20;;;;;;;20.80;69.62;100041.81;4894173;29;20585;-80
2021/07/13 01:28:26;;;;;;;0.30;0.20;;;;;;;20.82;68.41;100039.72;4875541;29;20051;-79
2021/07/13 01:30:56;;;;;;;0.20;0.20;;;;;;;20.85;68.42;100028.31;4900096;29;20068;-79
2021/07/13 01:33:26;;;;;;;0.32;0.20;;;;;;;20.90;68.64;100036.75;4899447;29;20399;-78
2021/07/13 01:35:57;;;;;;;0.20;0.20;;;;;;;20.97;69.11;100033.19;4901700;29;20051;-80
2021/07/13 01:38:26;;;;;;;0.20;0.20;;;;;;;20.98;69.13;100026.63;4895482;29;20037;-80
2021/07/13 01:40:58;;;;;;;0.75;0.25;;;;;;;21.03;67.71;100018.59;4865123;29;20048;-80
2021/07/13 01:43:30;;;;;;;0.20;0.20;;;;;;;21.02;69.35;100023.22;4895683;29;20067;-81
2021/07/13 01:45:57;;;;;;;0.10;0.10;;;;;;;21.05;67.52;100027.47;4893813;29;20056;-79
2021/07/13 01:48:27;;;;;;;0.28;0.17;;;;;;;21.05;67.12;100016.47;4890376;29;20072;-80
2021/07/13 01:50:54;;;;;;;0.20;0.20;;;;;;;21.08;66.30;100019.66;4896631;29;20041;-80
2021/07/13 01:53:21;;;;;;;0.10;0.10;;;;;;;21.11;66.20;100021.13;4894184;29;20119;-79
2021/07/13 01:55:47;;;;;;;0.20;0.20;;;;;;;21.12;66.30;100020.91;4896713;29;20048;-80
2021/07/13 01:58:13;;;;;;;0.10;0.10;;;;;;;21.18;65.75;100028.31;4913338;29;20044;-79
2021/07/13 02:00:42;;;;;;;0.22;0.20;;;;;;;21.20;65.43;100022.59;4893443;29;20053;-79
2021/07/13 02:03:08;;;;;;;0.10;0.10;;;;;;;21.20;65.31;100025.34;4888725;29;20430;-80
2021/07/13 02:05:35;;;;;;;0.10;0.10;;;;;;;21.22;65.69;100028.75;4893860;29;20040;-80
2021/07/13 02:08:03;;;;;;;0.15;0.15;;;;;;;21.24;65.57;100028.53;4895643;29;20068;-79
2021/07/13 02:10:30;;;;;;;0.20;0.20;;;;;;;21.27;65.14;100030.84;4879654;29;20041;-80
2021/07/13 02:12:56;;;;;;;0.17;0.17;;;;;;;;;;4869189;29;20044;-80
2021/07/13 02:15:23;;;;;;;0.10;0.10;;;;;;;21.32;65.57;100040.19;4897269;29;20172;-81
2021/07/13 02:17:52;;;;;;;0.10;0.10;;;;;;;21.34;65.02;100038.09;4901513;29;20122;-78
2021/07/13 02:20:20;;;;;;;0.17;0.17;;;;;;;21.36;64.83;100035.97;4873770;29;20161;-80
2021/07/13 02:22:46;;;;;;;0.20;0.20;;;;;;;21.39;65.06;100038.31;4883136;29;20047;-78
2021/07/13 02:25:13;;;;;;;0.17;0.13;;;;;;;21.42;64.93;100028.75;4883449;29;20430;-79
2021/07/13 02:27:45;;;;;;;0.10;0.10;;;;;;;21.47;65.56;100039.16;4903360;29;20063;-80
2021/07/13 02:30:12;;;;;;;0.20;0.20;;;;;;;21.49;66.48;100028.75;4888843;29;20069;-79
2021/07/13 02:32:46;;;;;;;0.20;0.15;;;;;;;21.52;65.33;100036.59;4878690;29;20080;-80
2021/07/13 02:35:14;;;;;;;0.20;0.20;;;;;;;21.53;64.44;100032.78;4875166;29;20213;-78
2021/07/13 02:37:40;;;;;;;0.22;0.20;;;;;;;21.58;64.81;100033.00;4887716;29;20049;-80
2021/07/13 02:40:08;;;;;;;0.40;0.20;;;;;;;21.60;63.99;100030.88;4892780;29;20123;-80
2021/07/13 02:42:37;;;;;;;0.10;0.10;;;;;;;21.63;63.87;100031.28;4880390;29;20076;-80
2021/07/13 02:45:05;;;;;;;0.10;0.10;;;;;;;21.69;64.36;100023.25;4892625;29;20045;-80
2021/07/13 02:47:32;;;;;;;0.30;0.20;;;;;;;21.73;64.05;100033.59;4880558;29;20055;-80
2021/07/13 02:49:59;;;;;;;0.10;0.10;;;;;;;21.79;63.64;100027.25;4908923;29;20049;-79
2021/07/13 02:52:29;;;;;;;0.43;0.25;;;;;;;21.82;63.80;100029.56;4879698;29;20064;-79
2021/07/13 02:55:04;;;;;;;0.20;0.20;;;;;;;21.92;63.68;100021.69;4871720;29;20494;-81
2021/07/13 02:57:31;;;;;;;0.17;0.17;;;;;;;21.93;63.28;100025.28;4888543;29;20040;-78
2021/07/13 02:59:58;;;;;;;0.10;0.10;;;;;;;22.07;63.07;100035.19;4876548;29;20474;-80
2021/07/13 03:02:25;;;;;;;0.20;0.20;;;;;;;22.16;62.79;100022.09;4863362;29;20048;-78
2021/07/13 03:04:51;;;;;;;0.20;0.20;;;;;;;22.28;62.73;100027.75;4880415;29;20051;-80
2021/07/13 03:07:21;;;;;;;0.20;0.20;;;;;;;22.40;61.96;100026.00;4883074;29;20124;-82
2021/07/13 03:09:48;;;;;;;0.20;0.20;;;;;;;22.42;61.26;100028.53;4897441;29;20056;-80
2021/07/13 03:12:14;;;;;;;0.10;0.10;;;;;;;22.48;60.85;100033.16;4893407;29;20041;-79
2021/07/13 03:14:44;;;;;;;0.20;0.20;;;;;;;22.57;61.34;100021.66;4903654;29;20447;-81
2021/07/13 03:17:12;;;;;;;0.22;0.22;;;;;;;22.70;60.96;100029.00;4887079;29;20387;-81
2021/07/13 03:19:38;;;;;;;0.30;0.25;;;;;;;22.75;60.65;100029.19;4895867;29;20076;-80
2021/07/13 03:22:09;;;;;;;0.20;0.20;;;;;;;22.80;59.78;100032.13;4895584;29;20566;-79
2021/07/13 03:24:37;;;;;;;0.25;0.22;;;;;;;22.90;60.50;100030.81;4889403;29;20048;-81
2021/07/13 03:27:03;;;;;;;0.20;0.20;;;;;;;22.99;60.15;100035.00;4881275;29;20052;-82
2021/07/13 03:29:30;;;;;;;0.20;0.20;;;;;;;23.14;59.68;100041.03;4895997;29;20835;-79
2021/07/13 03:31:57;;;;;;;0.95;0.35;;;;;;;23.16;59.75;100036.16;4897712;29;20037;-81
2021/07/13 03:34:24;;;;;;;0.20;0.20;;;;;;;23.33;59.49;100037.28;4891900;29;20067;-80
2021/07/13 03:36:50;;;;;;;0.25;0.25;;;;;;;23.42;59.89;100039.75;4901187;29;20463;-82
2021/07/13 03:39:17;;;;;;;0.32;0.30;;;;;;;23.50;60.08;100042.22;4884245;29;20111;-82
2021/07/13 03:41:43;;;;;;;0.22;0.22;;;;;;;23.60;59.77;100042.56;4888438;29;20032;-80
2021/07/13 03:44:09;;;;;;;0.30;0.30;;;;;;;23.78;59.80;100039.88;4893915;29;20541;-80
2021/07/13 03:46:36;;;;;;;0.25;0.25;;;;;;;23.84;59.44;100038.13;4904213;29;20115;-82
2021/07/13 03:49:07;;;;;;;0.47;0.30;;;;;;;24.16;58.71;100047.09;4881114;29;20048;-80
2021/07/13 03:51:44;;;;;;;0.30;0.30;;;;;;;24.46;58.36;100040.81;4891276;29;20072;-79
2021/07/13 03:54:12;;;;;;;1.15;0.32;;;;;;;24.51;58.15;100030.75;4890580;29;20037;-81
2021/07/13 03:56:38;;;;;;;0.30;0.30;;;;;;;24.63;58.40;100039.09;4898029;29;20088;-80
2021/07/13 03:59:06;;;;;;;0.30;0.30;;;;;;;24.71;57.64;100038.75;4882367;29;20471;-81
2021/07/13 04:01:32;;;;;;;0.30;0.30;;;;;;;24.97;57.92;100039.44;4867223;29;20041;-80
2021/07/13 04:03:59;;;;;;;0.20;0.20;;;;;;;24.98;57.02;100030.09;4902674;29;20044;-81
2021/07/13 04:06:25;;;;;;;0.93;0.30;;;;;;;25.05;56.69;100033.59;4893813;29;20058;-81
2021/07/13 04:08:51;;;;;;;0.30;0.30;;;;;;;25.28;56.95;100043.06;4904485;29;20048;-83
2021/07/13 04:11:17;;;;;;;0.35;0.30;;;;;;;25.64;56.00;100026.22;4917232;29;20063;-81
2021/07/13 04:13:44;;;;;;;0.30;0.30;;;;;;;26.01;55.47;100030.69;4905107;29;20044;-84
2021/07/13 04:16:10;;;;;;;0.30;0.30;;;;;;;26.36;53.89;100025.03;4880630;29;20047;-81
2021/07/13 04:18:36;;;;;;;0.40;0.40;;;;;;;26.30;54.55;100028.81;4883638;29;20044;-81
2021/07/13 04:21:03;;;;;;;0.40;0.35;;;;;;;26.47;54.19;100031.69;4905278;29;20406;-80
2021/07/13 04:23:30;;;;;;;0.50;0.30;;;;;;;26.58;54.06;100031.66;4915637;29;20037;-82
2021/07/13 04:25:56;;;;;;;0.30;0.30;;;;;;;26.81;53.15;100024.31;4902293;29;20056;-83
2021/07/13 04:28:23;;;;;;;0.30;0.30;;;;;;;27.22;52.63;100036.19;4901097;29;20036;-85
2021/07/13 04:30:49;;;;;;;0.68;0.40;;;;;;;27.20;51.85;100027.25;4901774;29;20541;-81
2021/07/13 04:33:16;;;;;;;0.30;0.30;;;;;;;27.70;49.36;100031.94;4890448;29;20385;-82
2021/07/13 04:35:42;;;;;;;0.63;0.40;;;;;;;27.82;47.56;100032.72;4901767;29;20147;-80
2021/07/13 04:38:08;;;;;;;0.30;0.30;;;;;;;28.20;47.42;100031.03;4895718;29;20079;-82
2021/07/13 04:40:34;;;;;;;0.30;0.30;;;;;;;28.19;46.69;100029.31;4906317;29;20067;-82
2021/07/13 04:43:00;;;;;;;0.30;0.30;;;;;;;28.22;46.28;100029.66;4885647;29;20104;-82
2021/07/13 04:45:26;;;;;;;0.38;0.38;;;;;;;28.33;45.43;100037.03;4906677;29;20044;-82
2021/07/13 04:47:52;;;;;;;0.60;0.50;;;;;;;28.66;45.50;100028.81;4869642;29;20152;-82
2021/07/13 04:50:19;;;;;;;0.40;0.40;;;;;;;28.86;43.84;100029.06;4913587;29;20111;-82
2021/07/13 04:52:45;;;;;;;0.40;0.40;;;;;;;29.19;43.28;100043.88;4916675;29;20070;-84
2021/07/13 04:55:12;;;;;;;0.32;0.32;;;;;;;29.30;43.66;100029.78;4918279;29;20063;-83
2021/07/13 04:57:39;;;;;;;0.57;0.57;;;;;;;29.11;41.33;100027.63;4920288;29;20045;-82
2021/07/13 05:00:06;;;;;;;0.40;0.40;;;;;;;29.08;39.79;100029.84;4897694;29;20136;-84
2021/07/13 05:02:34;;;;;;;0.40;0.40;;;;;;;29.28;39.57;100031.97;4877972;29;20206;-83
2021/07/13 05:05:00;;;;;;;0.38;0.38;;;;;;;30.08;38.41;100029.22;4918545;29;20056;-82
2021/07/13 05:07:27;;;;;;;0.40;0.40;;;;;;;30.52;36.84;100018.53;4859189;29;20402;-82
2021/07/13 05:09:53;;;;;;;0.40;0.40;;;;;;;30.95;36.67;100022.03;4908585;29;20163;-84
2021/07/13 05:12:19;;;;;;;0.30;0.30;;;;;;;30.57;36.95;100019.66;4906922;29;20041;-81
2021/07/13 05:14:45;;;;;;;0.40;0.40;;;;;;;30.80;37.15;100018.38;4911145;29;20542;-83
2021/07/13 05:17:12;;;;;;;0.40;0.40;;;;;;;30.71;36.51;100026.41;4908166;29;20059;-82
2021/07/13 05:19:40;;;;;;;0.30;0.30;;;;;;;30.31;37.77;100022.38;4859669;29;20048;-83
2021/07/13 05:22:08;;;;;;;0.30;0.30;;;;;;;30.38;37.65;100017.38;4905095;29;20045;-82
2021/07/13 05:24:35;;;;;;;0.40;0.40;;;;;;;30.40;37.24;100014.34;4914672;29;20043;-82
2021/07/13 05:27:02;;;;;;;0.45;0.45;;;;;;;30.52;36.46;100014.91;4913311;29;20185;-81
2021/07/13 05:29:29;;;;;;;0.50;0.50;;;;;;;30.96;35.94;100023.69;4911720;29;20099;-83
2021/07/13 05:31:56;;;;;;;0.40;0.40;;;;;;;31.08;36.17;100019.81;4894234;29;20040;-83
2021/07/13 05:34:23;;;;;;;0.40;0.40;;;;;;;31.01;35.94;100024.81;4894755;29;20052;-86
2021/07/13 05:36:50;;;;;;;0.50;0.50;;;;;;;31.34;35.67;100024.34;4903770;29;20050;-82
2021/07/13 05:39:18;;;;;;;0.60;0.60;;;;;;;32.28;34.35;100033.09;4899150;29;20032;-82
2021/07/13 05:41:44;;;;;;;0.50;0.50;;;;;;;32.38;33.83;100027.47;4909751;29;20498;-84
2021/07/13 05:44:10;;;;;;;0.52;0.52;;;;;;;33.16;33.16;100034.34;4903043;29;20037;-82
2021/07/13 05:46:39;;;;;;;0.55;0.55;;;;;;;33.57;32.10;100029.28;4888191;29;20040;-81
2021/07/13 05:49:07;;;;;;;0.57;0.50;;;;;;;33.84;31.52;100028.72;4909285;29;20092;-84
2021/07/13 05:51:34;;;;;;;0.50;0.50;;;;;;;33.13;32.46;100026.56;4883756;29;20068;-83
2021/07/13 05:54:02;;;;;;;0.50;0.50;;;;;;;33.30;32.79;100010.13;4876336;29;20173;-82
2021/07/13 05:56:29;;;;;;;0.60;0.60;;;;;;;33.81;31.80;100026.50;4889154;29;20037;-81
2021/07/13 05:58:58;;;;;;;0.50;0.50;;;;;;;33.74;31.13;100020.41;4885745;29;20072;-86
2021/07/13 06:01:24;;;;;;;0.50;0.50;;;;;;;33.77;31.55;100021.78;4877328;29;20083;-83
2021/07/13 06:03:53;;;;;;;0.50;0.50;;;;;;;34.26;30.58;100018.75;4899105;29;20075;-82
2021/07/13 06:06:21;;;;;;;0.50;0.50;;;;;;;34.93;30.64;100026.28;4906123;29;20572;-84
2021/07/13 06:08:48;;;;;;;0.60;0.60;;;;;;;34.80;29.76;100020.25;4888839;29;20048;-82
2021/07/13 06:11:17;;;;;;;0.57;0.57;;;;;;;34.30;31.26;100016.19;4891938;29;20044;-84
2021/07/13 06:13:45;;;;;;;0.50;0.50;;;;;;;34.29;29.98;100020.94;4875764;29;20076;-84
2021/07/13 06:16:11;;;;;;;0.60;0.60;;;;;;;35.14;29.79;100019.25;4874711;29;20041;-82
2021/07/13 06:18:38;;;;;;;0.60;0.60;;;;;;;35.55;28.68;100021.38;4887537;29;20040;-82
2021/07/13 06:21:05;;;;;;;0.52;0.52;;;;;;;35.78;28.70;100021.53;4913619;29;20128;-83
2021/07/13 06:23:31;;;;;;;0.60;0.60;;;;;;;35.67;27.81;100018.91;4900380;29;20130;-83
2021/07/13 06:25:59;;;;;;;0.50;0.50;;;;;;;35.95;27.66;100022.59;4911229;29;20060;-85
2021/07/13 06:28:28;;;;;;;0.50;0.50;;;;;;;35.81;27.92;100023.72;5037445;23;20110;-84
2021/07/13 06:30:57;;;;;;;0.60;0.60;;;;;;;35.44;27.47;100022.69;4910446;29;20058;-84
2021/07/13 06:33:25;;;;;;;0.65;0.65;;;;;;;35.41;27.77;100024.13;4920649;29;20048;-84
2021/07/13 06:35:54;;;;;;;0.60;0.60;;;;;;;35.72;27.62;100021.59;4916757;29;20148;-84
2021/07/13 06:38:24;;;;;;;0.60;0.60;;;;;;;35.64;27.81;100022.31;4961072;23;20075;-84
2021/07/13 06:40:53;;;;;;;0.60;0.60;;;;;;;36.30;27.15;100022.22;4938406;29;20032;-87
2021/07/13 06:43:20;;;;;;;0.80;0.80;;;;;;;36.94;27.13;100020.25;4949404;28;20032;-83
2021/07/13 06:45:48;;;;;;;0.80;0.80;;;;;;;35.82;27.52;100017.78;4927904;29;20045;-85
2021/07/13 06:48:16;;;;;;;0.70;0.70;;;;;;;35.65;26.84;100017.53;4914093;29;20112;-84
2021/07/13 06:50:43;;;;;;;0.70;0.70;;;;;;;36.48;27.34;100029.72;4924831;29;20049;-85
2021/07/13 06:53:09;;;;;;;0.60;0.60;;;;;;;37.34;25.70;100028.88;4911277;29;20048;-84
2021/07/13 06:55:36;;;;;;;0.60;0.60;;;;;;;37.88;25.54;100027.78;4913194;29;20044;-83
2021/07/13 06:58:03;;;;;;;0.63;0.63;;;;;;;37.77;24.57;100025.50;4925940;29;20111;-83
2021/07/13 07:00:30;;;;;;;0.60;0.60;;;;;;;38.42;23.51;100029.66;4918700;29;20040;-82
2021/07/13 07:02:57;;;;;;;0.63;0.63;;;;;;;38.70;23.20;100018.94;4940653;29;20044;-84
2021/07/13 07:05:24;;;;;;;0.70;0.70;;;;;;;38.19;23.93;100028.91;4912007;29;20021;-85
2021/07/13 07:07:52;;;;;;;0.80;0.80;;;;;;;38.28;23.15;100030.59;4915442;29;20024;-85
2021/07/13 07:10:22;;;;;;;0.80;0.80;;;;;;;37.99;24.10;100019.84;4919886;29;20044;-84
2021/07/13 07:12:49;;;;;;;0.70;0.70;;;;;;;37.74;24.29;100029.00;5070578;23;20521;-84
2021/07/13 07:15:16;;;;;;;0.70;0.70;;;;;;;38.76;23.72;100017.59;4910527;29;20024;-85
2021/07/13 07:17:46;;;;;;;0.70;0.70;;;;;;;39.20;22.10;100012.78;4922284;29;20489;-83
2021/07/13 07:20:14;;;;;;;0.80;0.80;;;;;;;40.13;21.33;100016.97;4945166;29;20044;-85
2021/07/13 07:22:41;;;;;;;0.80;0.80;;;;;;;40.34;21.50;100020.69;4927047;29;20043;-84
2021/07/13 07:25:09;;;;;;;0.70;0.70;;;;;;;39.08;22.27;100019.97;4925986;29;20067;-82
2021/07/13 07:27:37;;;;;;;0.75;0.75;;;;;;;39.83;21.49;100016.91;4918397;29;20028;-84
2021/07/13 07:30:06;;;;;;;0.80;0.80;;;;;;;40.62;20.65;100020.22;4945402;29;20051;-84
2021/07/13 07:32:34;;;;;;;0.80;0.80;;;;;;;40.09;20.63;100013.13;4933253;29;20071;-84
2021/07/13 07:35:01;;;;;;;0.80;0.80;;;;;;;39.85;21.22;100016.53;4909308;29;20043;-82
2021/07/13 07:37:29;;;;;;;0.90;0.90;;;;;;;40.52;20.16;100009.22;4928092;29;20562;-83
2021/07/13 07:39:57;;;;;;;0.70;0.70;;;;;;;41.46;19.18;100011.69;4910186;29;20202;-84
2021/07/13 07:42:25;;;;;;;0.80;0.80;;;;;;;41.69;18.87;100015.81;4910255;29;20044;-84
2021/07/13 07:44:52;;;;;;;0.90;0.90;;;;;;;41.86;18.67;100007.09;4932142;29;20104;-85
2021/07/13 07:47:19;;;;;;;0.80;0.80;;;;;;;42.05;18.95;100014.22;4903071;29;20072;-84
2021/07/13 07:49:47;;;;;;;0.80;0.80;;;;;;;41.83;18.46;100010.66;4923031;29;20103;-86
2021/07/13 07:52:14;;;;;;;0.85;0.85;;;;;;;42.39;18.32;100013.78;4909597;29;20085;-84
2021/07/13 07:54:41;;;;;;;0.90;0.90;;;;;;;42.57;18.27;100007.84;4970669;23;20074;-85
2021/07/13 07:57:08;;;;;;;0.70;0.70;;;;;;;43.15;17.82;100014.13;4934768;29;20041;-85
2021/07/13 07:59:35;;;;;;;1.00;1.00;;;;;;;43.42;17.35;100003.09;4928374;29;20089;-83
2021/07/13 08:02:01;;;;;;;1.00;1.00;;;;;;;43.32;17.81;100005.25;5000730;23;20119;-85
2021/07/13 08:04:28;;;;;;;0.93;0.93;;;;;;;43.54;18.06;99997.34;4904335;29;20047;-83
2021/07/13 08:06:55;;;;;;;0.85;0.85;;;;;;;43.70;17.15;100003.91;4924509;29;20053;-86
2021/07/13 08:09:22;;;;;;;0.90;0.90;;;;;;;44.23;17.02;99997.94;4909412;29;20044;-83
2021/07/13 08:11:48;;;;;;;0.90;0.90;;;;;;;43.56;17.35;100000.69;4923587;29;20044;-84
2021/07/13 08:14:17;;;;;;;1.00;1.00;;;;;;;43.78;17.03;100000.06;4931307;29;20044;-85
2021/07/13 08:16:45;;;;;;;1.10;1.00;;;;;;;44.14;16.87;99989.59;4919734;29;20144;-83
2021/07/13 08:19:12;;;;;;;0.90;0.90;;;;;;;44.37;16.21;99991.78;4929281;29;20048;-84
2021/07/13 08:21:40;;;;;;;1.00;1.00;;;;;;;44.02;16.59;99989.69;4910057;29;20075;-85
2021/07/13 08:24:08;;;;;;;1.00;1.00;;;;;;;43.06;17.47;99990.66;4889396;29;20044;-83
2021/07/13 08:26:35;;;;;;;0.80;0.80;;;;;;;42.45;18.55;99994.44;4913361;29;20120;-83
2021/07/13 08:29:02;;;;;;;0.93;0.93;;;;;;;43.37;16.92;99974.88;4927701;29;20073;-84
2021/07/13 08:31:29;;;;;;;0.90;0.90;;;;;;;43.73;17.10;99979.53;4911784;29;20064;-84
2021/07/13 08:37:13;;;;;;;1.15;1.00;;;;;;;42.62;18.20;99965.75;5004706;23;20118;-85
2021/07/13 08:39:40;;;;;;;0.90;0.90;;;;;;;43.64;17.03;99967.50;4905204;29;20048;-84
2021/07/13 08:42:09;;;;;;;0.80;0.80;;;;;;;44.47;16.96;99968.41;4948057;23;20036;-85
2021/07/13 08:44:36;;;;;;;0.90;0.90;;;;;;;43.44;17.42;99955.13;4952814;29;20067;-84
2021/07/13 08:47:04;;;;;;;0.90;0.90;;;;;;;44.04;17.02;99961.66;4921256;29;20095;-87
2021/07/13 08:49:31;;;;;;;0.88;0.88;;;;;;;44.38;16.37;99965.75;4925151;29;20024;-85
2021/07/13 08:51:59;;;;;;;0.90;0.90;;;;;;;44.59;16.60;99959.72;4894133;29;20044;-86
2021/07/13 08:54:28;;;;;;;0.90;0.90;;;;;;;44.68;16.36;99962.38;4892152;29;20040;-85
2021/07/13 08:56:54;;;;;;;0.90;0.90;;;;;;;42.70;17.77;99955.44;4904824;29;20064;-86
2021/07/13 08:59:21;;;;;;;1.02;1.02;;;;;;;43.61;16.77;99948.31;4885547;29;20047;-83
2021/07/13 09:01:48;;;;;;;0.95;0.95;;;;;;;44.24;16.89;99949.09;4916517;29;20024;-85
2021/07/13 09:04:17;;;;;;;0.80;0.80;;;;;;;45.03;15.68;99958.63;4907393;29;20032;-87
2021/07/13 09:06:54;;;;;;;1.05;1.00;;;;;;;44.74;15.83;99955.19;4919443;29;20040;-83
2021/07/13 09:09:32;;;;;;;0.77;0.77;;;;;;;44.91;15.36;99953.91;4913662;29;20020;-83
2021/07/13 09:12:05;;;;;;;0.80;0.80;;;;;;;45.50;15.02;99952.69;4932279;29;20049;-86
2021/07/13 09:14:59;;;;;;;1.13;1.13;;;;;;;44.81;15.65;99955.31;4911248;29;20048;-85
2021/07/13 09:17:40;;;;;;;0.80;0.80;;;;;;;43.74;16.03;99947.84;5089176;23;20044;31
2021/07/13 09:20:27;;;;;;;1.07;1.00;;;;;;;44.65;15.50;99952.53;4910646;29;20127;-85
2021/07/13 09:23:03;;;;;;;0.95;0.95;;;;;;;45.06;15.08;99961.59;4906711;29;20430;-86
2021/07/13 09:25:35;;;;;;;0.88;0.88;;;;;;;44.33;15.31;99950.97;4931743;29;20046;-82
2021/07/13 09:28:18;;;;;;;0.80;0.80;;;;;;;45.11;14.20;99954.75;4916680;29;20071;-86
2021/07/13 09:30:57;;;;;;;0.80;0.80;;;;;;;42.29;16.29;99939.53;4914540;29;20055;-85
2021/07/13 09:33:23;;;;;;;0.85;0.85;;;;;;;42.93;16.49;99941.53;4914988;29;20036;-86
2021/07/13 09:36:15;;;;;;;0.93;0.93;;;;;;;43.50;16.43;99934.59;4916167;29;20068;-85
2021/07/13 09:38:52;;;;;;;0.90;0.90;;;;;;;44.31;15.42;99947.66;4912984;29;20044;-86
2021/07/13 09:41:24;;;;;;;0.70;0.70;;;;;;;44.79;14.44;99931.22;4915083;29;20044;-85
2021/07/13 09:44:04;;;;;;;0.80;0.80;;;;;;;45.43;14.96;99935.38;4929356;29;20423;-86
2021/07/13 09:46:44;;;;;;;0.70;0.70;;;;;;;45.68;14.62;99935.88;4886258;29;20057;-85
2021/07/13 09:49:21;;;;;;;0.77;0.77;;;;;;;45.30;14.83;99931.88;4927740;29;20059;-85
2021/07/13 09:51:58;;;;;;;0.75;0.75;;;;;;;43.87;15.84;99940.03;5101229;23;20018;31
2021/07/13 09:54:29;;;;;;;0.77;0.77;;;;;;;43.71;16.22;99942.88;4921028;29;20068;-84
2021/07/13 09:56:56;;;;;;;0.60;0.60;;;;;;;43.49;15.74;99929.28;4890227;29;20052;-85
2021/07/13 09:59:24;;;;;;;0.88;0.88;;;;;;;43.48;15.99;99930.47;4871588;29;20113;-85
2021/07/13 10:01:50;;;;;;;0.80;0.80;;;;;;;43.84;15.96;99925.69;4876248;29;20045;-83
2021/07/13 10:04:18;;;;;;;0.80;0.80;;;;;;;43.43;16.43;99916.47;4889660;29;20025;-85
2021/07/13 10:06:47;;;;;;;0.63;0.63;;;;;;;41.70;17.60;99934.28;4998790;23;20071;-85
2021/07/13 10:09:16;;;;;;;0.77;0.77;;;;;;;41.60;18.04;99918.53;5100986;23;20043;-87
2021/07/13 10:11:43;;;;;;;0.90;0.90;;;;;;;43.30;17.17;99916.56;4911400;29;20044;-86
2021/07/13 10:14:11;;;;;;;0.80;0.80;;;;;;;43.91;16.22;99928.75;4899925;29;20044;-84
2021/07/13 10:16:42;;;;;;;0.77;0.77;;;;;;;43.12;16.23;99915.25;4911415;29;20045;-84
2021/07/13 10:19:09;;;;;;;0.70;0.70;;;;;;;43.84;16.12;99925.69;4922961;29;20051;-85
2021/07/13 10:21:38;;;;;;;0.80;0.80;;;;;;;44.17;16.43;99909.00;4935413;29;20051;-85
2021/07/13 10:24:06;;;;;;;0.60;0.60;;;;;;;44.22;15.79;99917.28;4914659;29;20060;-84
2021/07/13 10:26:48;;;;;;;0.80;0.80;;;;;;;44.64;14.49;99913.75;4895690;29;20052;-84
2021/07/13 10:29:34;;;;;;;0.70;0.70;;;;;;;45.10;13.76;99911.09;4897991;23;20040;-84
2021/07/13 10:32:04;;;;;;;0.70;0.70;;;;;;;45.31;13.75;99909.84;4910674;29;20047;-84
2021/07/13 10:34:53;;;;;;;0.80;0.80;;;;;;;44.57;15.55;99910.75;4996370;23;20040;-84
2021/07/13 10:37:40;;;;;;;0.60;0.60;;;;;;;45.20;15.44;99910.50;4898644;29;20048;-85
2021/07/13 10:40:10;;;;;;;0.80;0.80;;;;;;;45.55;15.38;99915.22;4911552;29;20502;-86
2021/07/13 10:42:40;;;;;;;0.73;0.73;;;;;;;44.74;15.33;99903.81;4917860;29;20479;-84
2021/07/13 10:45:13;;;;;;;0.80;0.80;;;;;;;45.26;15.40;99913.03;4918402;29;20036;-86
2021/07/13 10:48:07;;;;;;;0.63;0.63;;;;;;;43.48;17.35;99904.84;4897394;29;20062;-84
2021/07/13 10:50:43;;;;;;;1.00;0.60;;;;;;;43.15;17.46;99906.00;4911469;29;20038;-85
2021/07/13 10:53:31;;;;;;;0.60;0.60;;;;;;;42.75;17.61;99909.69;4882810;29;20167;-84
2021/07/13 10:56:04;;;;;;;0.77;0.77;;;;;;;41.87;18.46;99908.50;4909528;29;20037;-83
2021/07/13 10:58:38;;;;;;;0.70;0.70;;;;;;;40.82;18.52;99894.63;4916512;29;20059;-83
2021/07/13 11:01:14;;;;;;;0.70;0.70;;;;;;;41.66;18.63;99889.56;4901187;29;20104;-85
2021/07/13 11:03:41;;;;;;;0.70;0.70;;;;;;;42.08;17.72;99894.16;4920284;29;20031;-85
2021/07/13 11:06:09;;;;;;;0.80;0.80;;;;;;;42.47;17.58;99900.28;4962426;23;20043;-84
2021/07/13 11:08:52;;;;;;;0.70;0.70;;;;;;;43.04;16.39;99907.66;5109497;23;20080;-85
2021/07/13 11:11:27;;;;;;;2.50;1.75;;;;;;;42.82;17.20;99895.69;4921700;29;20068;-85
2021/07/13 11:14:02;;;;;;;0.73;0.73;;;;;;;42.65;17.36;99895.97;4930998;29;20029;-85
2021/07/13 11:16:31;;;;;;;0.68;0.68;;;;;;;42.36;18.18;99883.72;4927253;29;20171;-84
2021/07/13 11:18:59;;;;;;;0.80;0.80;;;;;;;41.09;19.58;99895.22;4940592;29;20088;-84
2021/07/13 11:21:35;;;;;;;0.70;0.70;;;;;;;41.01;20.00;99884.78;4904087;29;20490;-86
2021/07/13 11:24:06;;;;;;;0.70;0.70;;;;;;;42.63;18.88;99875.56;4933189;29;20059;-84
2021/07/13 11:26:37;;;;;;;0.80;0.80;;;;;;;43.26;18.02;99881.50;4928870;29;20036;-84
2021/07/13 11:29:07;;;;;;;0.82;0.70;;;;;;;44.01;16.95;99874.88;4889200;29;20074;-84
2021/07/13 11:34:45;;;;;;;0.70;0.70;;;;;;;43.71;17.22;99880.22;5016611;23;20071;-83
2021/07/13 11:37:18;;;;;;;0.90;0.90;;;;;;;44.22;17.20;99871.69;4918439;29;20032;-84
2021/07/13 11:39:45;;;;;;;0.73;0.73;;;;;;;43.60;17.45;99872.59;4924029;29;20047;-85
2021/07/13 11:42:13;;;;;;;0.77;0.77;;;;;;;43.77;17.19;99878.75;4942915;29;20036;-84
2021/07/13 11:44:44;;;;;;;0.90;0.90;;;;;;;44.13;16.23;99876.75;4932857;29;20039;-84